createdAt,value
2022-07-29T00:02:16.321Z,100235.66
2022-07-29T00:04:43.095Z,100238.25
2022-07-29T00:07:09.786Z,100240.69
2022-07-29T00:09:50.877Z,100243.03
2022-07-29T00:12:25.592Z,100234.78
2022-07-29T00:14:54.451Z,100239.44
2022-07-29T00:17:22.895Z,100237.63
2022-07-29T00:19:49.557Z,100238.38
2022-07-29T00:22:16.305Z,100240.72
2022-07-29T00:24:42.932Z,100229.44
2022-07-29T00:27:09.537Z,100217.94
2022-07-29T00:29:36.189Z,100221.72
2022-07-29T00:32:03.093Z,100227.53
2022-07-29T00:34:31.489Z,100223.34
2022-07-29T00:36:58.644Z,100221.06
2022-07-29T00:39:25.261Z,100235.66
2022-07-29T00:41:54.260Z,100230.75
2022-07-29T00:44:21.181Z,100241.34
2022-07-29T00:46:47.907Z,100240.78
2022-07-29T00:49:14.741Z,100238.00
2022-07-29T00:51:42.823Z,100238.00
2022-07-29T00:54:09.544Z,100234.13
2022-07-29T00:56:37.097Z,100240.50
2022-07-29T00:59:03.796Z,100236.31
2022-07-29T01:01:30.566Z,100236.78
2022-07-29T01:03:57.335Z,100225.75
2022-07-29T01:06:25.705Z,100229.53
2022-07-29T01:08:53.958Z,100225.31
2022-07-29T01:11:21.158Z,100230.66
2022-07-29T01:13:48.760Z,100224.56
2022-07-29T01:16:22.039Z,100229.16
2022-07-29T01:18:52.734Z,100211.50
2022-07-29T01:21:46.770Z,100216.03
2022-07-29T01:24:31.097Z,100208.38
2022-07-29T01:27:03.097Z,100216.88
2022-07-29T01:29:39.071Z,100217.56
2022-07-29T01:32:21.562Z,100222.47
2022-07-29T01:35:03.020Z,100216.69
2022-07-29T01:37:38.765Z,100226.09
2022-07-29T01:40:09.131Z,100211.06
2022-07-29T01:42:39.493Z,100212.81
2022-07-29T01:45:15.473Z,100215.75
2022-07-29T01:47:47.553Z,100212.00
2022-07-29T01:50:18.339Z,100214.47
2022-07-29T01:52:57.472Z,100216.50
2022-07-29T01:55:28.996Z,100208.72
2022-07-29T01:57:59.469Z,100206.28
2022-07-29T02:00:30.741Z,100204.13
2022-07-29T02:02:59.746Z,100205.72
2022-07-29T02:05:29.827Z,100200.09
2022-07-29T02:07:58.792Z,100188.28
2022-07-29T02:10:29.393Z,100197.28
2022-07-29T02:12:58.066Z,100197.88
2022-07-29T02:15:28.638Z,100192.56
2022-07-29T02:17:59.179Z,100196.28
2022-07-29T02:20:28.071Z,100183.00
2022-07-29T02:22:56.294Z,100196.00
2022-07-29T02:25:25.282Z,100187.25
2022-07-29T02:28:06.069Z,100192.63
2022-07-29T02:30:37.672Z,100191.34
2022-07-29T02:33:05.669Z,100191.25
2022-07-29T02:35:35.001Z,100196.03
2022-07-29T02:38:04.043Z,100198.19
2022-07-29T02:40:30.717Z,100197.31
2022-07-29T02:42:57.527Z,100194.34
2022-07-29T02:45:24.364Z,100187.59
2022-07-29T02:47:54.803Z,100187.19
2022-07-29T02:50:30.714Z,100177.44
2022-07-29T02:53:02.677Z,100179.50
2022-07-29T02:55:33.998Z,100188.72
2022-07-29T02:58:03.259Z,100181.66
2022-07-29T03:00:30.606Z,100191.47
2022-07-29T03:03:01.904Z,100188.72
2022-07-29T03:05:28.896Z,100188.16
2022-07-29T03:07:58.178Z,100192.63
2022-07-29T03:10:25.952Z,100198.13
2022-07-29T03:12:53.649Z,100198.00
2022-07-29T03:15:20.992Z,100188.16
2022-07-29T03:17:50.139Z,100208.50
2022-07-29T03:20:18.894Z,100207.94
2022-07-29T03:22:45.955Z,100209.81
2022-07-29T03:25:13.800Z,100208.53
2022-07-29T03:27:40.645Z,100196.38
2022-07-29T03:30:09.283Z,100203.34
2022-07-29T03:32:36.322Z,100196.97
2022-07-29T03:35:03.224Z,100192.34
2022-07-29T03:37:31.249Z,100196.56
2022-07-29T03:39:59.033Z,100194.69
2022-07-29T03:42:32.407Z,100193.25
2022-07-29T03:45:04.492Z,100196.69
2022-07-29T03:47:49.727Z,100201.00
2022-07-29T03:50:19.468Z,100205.63
2022-07-29T03:52:48.523Z,100208.66
2022-07-29T03:55:16.010Z,100203.88
2022-07-29T03:57:43.584Z,100195.53
2022-07-29T04:00:11.091Z,100202.75
2022-07-29T04:02:39.373Z,100197.56
2022-07-29T04:05:12.359Z,100193.53
2022-07-29T04:07:38.966Z,100198.72
2022-07-29T04:10:08.239Z,100197.84
2022-07-29T04:12:34.663Z,100208.66
2022-07-29T04:15:01.271Z,100206.94
2022-07-29T04:17:27.872Z,100200.88
2022-07-29T04:19:54.500Z,100193.97
2022-07-29T04:22:21.142Z,100206.81
2022-07-29T04:24:49.596Z,100191.47
2022-07-29T04:27:17.618Z,100178.47
2022-07-29T04:29:56.354Z,100208.94
2022-07-29T04:32:24.282Z,100213.13
2022-07-29T04:34:50.965Z,100209.94
2022-07-29T04:37:17.607Z,100215.88
2022-07-29T04:39:44.215Z,100226.97
2022-07-29T04:42:10.887Z,100222.81
2022-07-29T04:44:39.634Z,100224.97
2022-07-29T04:47:09.522Z,100210.38
2022-07-29T04:49:38.816Z,100214.13
2022-07-29T04:52:05.787Z,100234.19
2022-07-29T04:54:32.606Z,100236.25
2022-07-29T04:56:59.209Z,100226.72
2022-07-29T04:59:25.826Z,100222.66
2022-07-29T05:01:53.862Z,100215.69
2022-07-29T05:04:20.983Z,100218.56
2022-07-29T05:06:47.902Z,100217.56
2022-07-29T05:09:14.596Z,100222.28
2022-07-29T05:11:41.223Z,100212.97
2022-07-29T05:14:07.857Z,100200.63
2022-07-29T05:16:34.516Z,100221.75
2022-07-29T05:19:02.751Z,100228.00
2022-07-29T05:21:29.373Z,100223.25
2022-07-29T05:23:55.980Z,100218.88
2022-07-29T05:26:22.658Z,100214.25
2022-07-29T05:28:49.306Z,100226.41
2022-07-29T05:31:16.010Z,100226.06
2022-07-29T05:33:42.664Z,100228.38
2022-07-29T05:36:10.681Z,100232.34
2022-07-29T05:38:37.535Z,100229.16
2022-07-29T05:41:04.686Z,100234.03
2022-07-29T05:43:31.263Z,100231.91
2022-07-29T05:45:57.954Z,100231.91
2022-07-29T05:48:24.792Z,100225.28
2022-07-29T05:50:51.605Z,100226.19
2022-07-29T05:53:20.712Z,100242.91
2022-07-29T05:55:47.973Z,100244.88
2022-07-29T05:58:14.693Z,100241.34
2022-07-29T06:00:41.485Z,100244.72
2022-07-29T06:03:08.067Z,100243.75
2022-07-29T06:05:34.755Z,100246.19
2022-07-29T06:08:01.425Z,100239.72
2022-07-29T06:10:29.520Z,100226.66
2022-07-29T06:12:56.206Z,100239.47
2022-07-29T06:15:22.860Z,100252.38
2022-07-29T06:17:59.274Z,100247.22
2022-07-29T06:20:27.760Z,100248.00
2022-07-29T06:22:54.358Z,100250.78
2022-07-29T06:25:21.178Z,100236.56
2022-07-29T06:27:49.212Z,100242.34
2022-07-29T06:30:15.785Z,100234.63
2022-07-29T06:32:43.449Z,100242.91
2022-07-29T06:35:37.705Z,100232.28
2022-07-29T06:37:59.635Z,100235.75
2022-07-29T06:40:26.627Z,100236.13
2022-07-29T06:42:54.580Z,100239.06
2022-07-29T06:45:21.324Z,100236.34
2022-07-29T06:47:48.004Z,100233.09
2022-07-29T06:50:14.635Z,100226.06
2022-07-29T06:52:41.275Z,100226.91
2022-07-29T06:55:09.230Z,100229.19
2022-07-29T06:57:35.921Z,100227.28
2022-07-29T07:00:04.914Z,100230.56
2022-07-29T07:02:31.822Z,100238.66
2022-07-29T07:04:58.500Z,100238.72
2022-07-29T07:07:25.139Z,100246.81
2022-07-29T07:09:51.797Z,100240.06
2022-07-29T07:12:18.414Z,100236.09
2022-07-29T07:14:45.072Z,100207.44
2022-07-29T07:17:13.135Z,100224.66
2022-07-29T07:19:39.741Z,100239.66
2022-07-29T07:22:07.939Z,100220.66
2022-07-29T07:24:47.252Z,100213.69
2022-07-29T07:27:13.986Z,100211.59
2022-07-29T07:29:41.317Z,100226.72
2022-07-29T07:32:11.031Z,100220.53
2022-07-29T07:34:40.821Z,100194.25
2022-07-29T07:37:10.684Z,100207.72
2022-07-29T07:39:37.565Z,100232.84
2022-07-29T07:42:04.401Z,100226.94
2022-07-29T07:44:31.194Z,100200.47
2022-07-29T07:46:58.042Z,100229.91
2022-07-29T07:49:30.668Z,100221.81
2022-07-29T07:51:58.993Z,100229.03
2022-07-29T07:54:28.957Z,100233.03
2022-07-29T07:56:59.809Z,100239.75
2022-07-29T07:59:26.467Z,100236.84
2022-07-29T08:01:55.693Z,100244.22
2022-07-29T08:04:27.753Z,100237.81
2022-07-29T08:06:55.970Z,100229.22
2022-07-29T08:09:29.875Z,100226.34
2022-07-29T08:11:57.395Z,100211.56
2022-07-29T08:14:25.517Z,100221.19
2022-07-29T08:16:52.312Z,100231.69
2022-07-29T08:19:19.376Z,100233.53
2022-07-29T08:22:17.006Z,100231.66
2022-07-29T08:24:45.254Z,100197.31
2022-07-29T08:27:40.630Z,100216.44
2022-07-29T08:29:59.527Z,100225.25
2022-07-29T08:32:52.117Z,100228.41
2022-07-29T08:35:14.972Z,100223.25
2022-07-29T08:37:44.789Z,100230.06
2022-07-29T08:40:13.442Z,100201.47
2022-07-29T08:42:40.430Z,100221.03
2022-07-29T08:45:08.535Z,100226.38
2022-07-29T08:47:35.447Z,100230.00
2022-07-29T08:50:02.396Z,100226.84
2022-07-29T08:58:15.961Z,100209.63
2022-07-29T09:00:45.190Z,100219.94
2022-07-29T09:03:18.149Z,100192.03
2022-07-29T09:05:48.288Z,100189.09
2022-07-29T09:08:15.962Z,100206.78
2022-07-29T09:10:44.686Z,100233.03
2022-07-29T09:13:11.611Z,100219.44
2022-07-29T09:15:38.356Z,100220.84
2022-07-29T09:18:06.389Z,100197.75
2022-07-29T09:20:36.027Z,100193.63
2022-07-29T09:23:09.327Z,100187.91
2022-07-29T09:25:36.995Z,100209.59
2022-07-29T09:28:12.768Z,100226.31
2022-07-29T09:30:51.258Z,100218.63
2022-07-29T09:33:17.863Z,100223.28
2022-07-29T09:35:56.992Z,100217.66
2022-07-29T09:38:23.936Z,100209.50
2022-07-29T09:40:57.668Z,100198.19
2022-07-29T09:43:29.355Z,100202.28
2022-07-29T09:45:56.095Z,100203.13
2022-07-29T09:48:24.146Z,100195.09
2022-07-29T09:50:52.115Z,100185.91
2022-07-29T09:53:32.559Z,100190.84
2022-07-29T09:55:59.497Z,100182.56
2022-07-29T09:58:26.144Z,100182.28
2022-07-29T10:00:55.402Z,100174.94
2022-07-29T10:03:23.131Z,100188.41
2022-07-29T10:06:05.898Z,100185.16
2022-07-29T10:08:32.892Z,100182.56
2022-07-29T10:11:10.664Z,100190.28
2022-07-29T10:13:37.378Z,100173.19
2022-07-29T10:16:06.733Z,100177.56
2022-07-29T10:18:33.457Z,100166.66
2022-07-29T10:21:00.916Z,100176.72
2022-07-29T10:23:28.291Z,100155.97
2022-07-29T10:25:55.399Z,100163.09
2022-07-29T10:28:22.070Z,100158.34
2022-07-29T10:30:51.563Z,100146.75
2022-07-29T10:33:42.213Z,100154.66
2022-07-29T10:36:39.035Z,100153.25
2022-07-29T10:39:16.411Z,100149.66
2022-07-29T10:42:03.686Z,100148.34
2022-07-29T10:44:30.915Z,100140.88
2022-07-29T10:46:58.638Z,100149.63
2022-07-29T10:49:30.483Z,100136.34
2022-07-29T10:52:03.470Z,100129.72
2022-07-29T10:54:47.717Z,100134.84
2022-07-29T10:57:17.049Z,100116.03
2022-07-29T10:59:44.295Z,100132.06
2022-07-29T11:02:43.956Z,100132.06
2022-07-29T11:05:14.954Z,100116.59
2022-07-29T11:08:25.938Z,100115.47
2022-07-29T11:11:35.089Z,100112.06
2022-07-29T11:14:03.637Z,100113.50
2022-07-29T11:16:59.758Z,100104.06
2022-07-29T11:19:30.594Z,100101.53
2022-07-29T11:21:59.416Z,100086.25
2022-07-29T11:24:31.783Z,100102.53
2022-07-29T11:27:17.948Z,100107.47
2022-07-29T11:29:54.123Z,100109.44
2022-07-29T11:32:23.138Z,100094.44
2022-07-29T11:38:27.883Z,100091.50
2022-07-29T11:41:21.070Z,100104.31
2022-07-29T11:43:50.672Z,100090.75
2022-07-29T11:46:24.956Z,100086.88
2022-07-29T11:48:52.646Z,100092.91
2022-07-29T11:51:19.487Z,100088.59
2022-07-29T11:54:05.338Z,100066.34
2022-07-29T11:56:33.160Z,100081.66
2022-07-29T11:59:05.285Z,100084.94
2022-07-29T12:01:35.451Z,100092.06
2022-07-29T12:04:06.809Z,100078.19
2022-07-29T12:06:33.833Z,100078.81
2022-07-29T12:07:03.361Z,100098.91
2022-07-29T12:09:08.567Z,100085.16
2022-07-29T12:11:41.483Z,100093.88
2022-07-29T12:14:25.858Z,100086.47
2022-07-29T12:16:52.992Z,100082.56
2022-07-29T12:19:19.745Z,100084.59
2022-07-29T12:21:50.977Z,100074.34
2022-07-29T12:24:26.859Z,100074.78
2022-07-29T12:26:55.727Z,100079.41
2022-07-29T12:29:34.797Z,100062.19
2022-07-29T12:32:03.722Z,100059.06
2022-07-29T12:34:31.010Z,100061.84
2022-07-29T12:36:57.869Z,100062.41
2022-07-29T12:39:26.582Z,100049.75
2022-07-29T12:41:54.083Z,100063.53
2022-07-29T12:44:44.864Z,100044.88
2022-07-29T12:47:11.481Z,100037.44
2022-07-29T12:49:38.368Z,100044.16
2022-07-29T12:52:30.135Z,100036.22
2022-07-29T12:54:58.309Z,100031.91
2022-07-29T12:57:25.148Z,100038.69
2022-07-29T13:00:07.395Z,100033.25
2022-07-29T13:02:34.179Z,100031.16
2022-07-29T13:05:05.165Z,100031.81
2022-07-29T13:07:55.130Z,100029.94
2022-07-29T13:10:24.117Z,100027.19
2022-07-29T13:13:05.116Z,100009.72
2022-07-29T13:15:32.262Z,100023.59
2022-07-29T13:17:59.248Z,100014.94
2022-07-29T13:20:27.683Z,100023.22
2022-07-29T13:22:54.523Z,100017.97
2022-07-29T13:25:26.944Z,100024.19
2022-07-29T13:27:54.179Z,100025.38
2022-07-29T13:30:21.720Z,100020.72
2022-07-29T13:32:48.700Z,100007.50
2022-07-29T13:35:15.612Z,100012.03
2022-07-29T13:37:42.232Z,99978.94
2022-07-29T13:40:10.732Z,99999.28
2022-07-29T13:42:38.903Z,99984.41
2022-07-29T13:45:07.514Z,99983.47
2022-07-29T13:47:34.210Z,99992.53
2022-07-29T13:50:01.122Z,99988.84
2022-07-29T13:52:29.005Z,99975.91
2022-07-29T13:54:55.701Z,99972.53
2022-07-29T13:57:22.303Z,99974.75
2022-07-29T13:59:53.968Z,99981.97
2022-07-29T14:02:21.746Z,99978.81
2022-07-29T14:04:52.878Z,99979.63
2022-07-29T14:07:19.548Z,99966.78
2022-07-29T14:09:46.255Z,99970.31
2022-07-29T14:12:12.893Z,99956.66
2022-07-29T14:14:39.625Z,99955.25
2022-07-29T14:17:07.995Z,99935.25
2022-07-29T14:19:35.324Z,99967.66
2022-07-29T14:22:03.079Z,99961.06
2022-07-29T14:24:29.874Z,99963.50
2022-07-29T14:26:56.673Z,99948.31
2022-07-29T14:29:23.352Z,99957.34
2022-07-29T14:32:04.418Z,99961.94
2022-07-29T14:34:32.626Z,99954.38
2022-07-29T14:36:59.287Z,99948.75
2022-07-29T14:39:25.891Z,99948.00
2022-07-29T14:41:59.545Z,99943.81
2022-07-29T14:44:26.603Z,99944.81
2022-07-29T14:46:53.249Z,99944.63
2022-07-29T14:49:19.922Z,99947.56
2022-07-29T14:51:47.970Z,99936.38
2022-07-29T14:54:14.663Z,99925.78
2022-07-29T14:56:46.516Z,99925.31
2022-07-29T14:59:13.743Z,99917.75
2022-07-29T15:01:51.140Z,99924.44
2022-07-29T15:04:17.868Z,99909.00
2022-07-29T15:06:44.499Z,99914.53
2022-07-29T15:09:12.685Z,99911.66
2022-07-29T15:11:39.432Z,99905.91
2022-07-29T15:14:06.195Z,99882.66
2022-07-29T15:16:32.989Z,99907.84
2022-07-29T15:19:01.232Z,99904.19
2022-07-29T15:21:28.331Z,99909.31
2022-07-29T15:23:54.934Z,99915.59
2022-07-29T15:26:23.025Z,99909.47
2022-07-29T15:28:49.732Z,99902.41
2022-07-29T15:31:16.412Z,99891.53
2022-07-29T15:33:43.094Z,99903.19
2022-07-29T15:36:09.760Z,99909.91
2022-07-29T15:38:41.766Z,99908.41
2022-07-29T15:41:09.219Z,99898.06
2022-07-29T15:43:37.274Z,99903.13
2022-07-29T15:46:03.974Z,99898.56
2022-07-29T15:48:31.082Z,99878.03
2022-07-29T15:50:57.830Z,99885.06
2022-07-29T15:53:24.485Z,99857.09
2022-07-29T15:55:51.146Z,99873.03
2022-07-29T15:58:17.819Z,99872.78
2022-07-29T16:00:45.876Z,99881.53
2022-07-29T16:03:12.547Z,99873.72
2022-07-29T16:05:39.185Z,99871.50
2022-07-29T16:08:06.218Z,99864.94
2022-07-29T16:10:32.875Z,99856.78
2022-07-29T16:12:59.535Z,99864.69
2022-07-29T16:15:26.124Z,99862.13
2022-07-29T16:17:54.113Z,99869.69
2022-07-29T16:20:21.085Z,99862.63
2022-07-29T16:22:48.717Z,99869.75
2022-07-29T16:25:15.413Z,99876.31
2022-07-29T16:27:42.034Z,99857.31
2022-07-29T16:30:09.677Z,99868.81
2022-07-29T16:32:36.468Z,99865.84
2022-07-29T16:35:05.226Z,99862.69
2022-07-29T16:37:31.665Z,99862.34
2022-07-29T16:39:58.333Z,99867.06
2022-07-29T16:42:44.281Z,99861.47
2022-07-29T16:45:11.856Z,99857.44
2022-07-29T16:47:38.976Z,99861.84
2022-07-29T16:50:08.989Z,99866.44
2022-07-29T16:52:35.792Z,99853.44
2022-07-29T16:55:02.416Z,99852.72
2022-07-29T16:57:29.144Z,99850.44
2022-07-29T16:59:55.840Z,99859.22
2022-07-29T17:02:22.577Z,99855.81
2022-07-29T17:04:49.252Z,99850.69
2022-07-29T17:07:17.383Z,99853.09
2022-07-29T17:09:43.970Z,99854.38
2022-07-29T17:12:10.657Z,99859.81
2022-07-29T17:14:38.005Z,99852.38
2022-07-29T17:17:05.124Z,99864.28
2022-07-29T17:19:40.344Z,99871.69
2022-07-29T17:22:13.070Z,99872.63
2022-07-29T17:24:43.952Z,99867.16
2022-07-29T17:27:11.793Z,99873.03
2022-07-29T17:29:39.153Z,99867.06
2022-07-29T17:32:07.831Z,99876.91
2022-07-29T17:34:35.027Z,99865.59
2022-07-29T17:37:02.010Z,99858.41
2022-07-29T17:39:29.917Z,99861.66
2022-07-29T17:41:58.075Z,99841.47
2022-07-29T17:44:24.757Z,99857.91
2022-07-29T17:46:51.564Z,99854.47
2022-07-29T17:49:20.379Z,99859.25
2022-07-29T17:51:47.409Z,99856.34
2022-07-29T17:54:14.612Z,99852.16
2022-07-29T17:56:41.302Z,99839.28
2022-07-29T17:59:09.425Z,99853.50
2022-07-29T18:01:37.020Z,99866.28
2022-07-29T18:04:03.983Z,99875.97
2022-07-29T18:06:30.684Z,99868.53
2022-07-29T18:08:57.500Z,99875.31
2022-07-29T18:11:24.258Z,99870.06
2022-07-29T18:13:51.078Z,99871.91
2022-07-29T18:16:19.345Z,99868.94
2022-07-29T18:18:46.522Z,99880.28
2022-07-29T18:21:13.496Z,99885.19
2022-07-29T18:23:40.194Z,99884.78
2022-07-29T18:26:09.651Z,99894.16
2022-07-29T18:28:36.365Z,99886.06
2022-07-29T18:31:03.195Z,99896.38
2022-07-29T18:33:31.444Z,99895.53
2022-07-29T18:36:06.057Z,99896.19
2022-07-29T18:38:38.249Z,99898.88
2022-07-29T18:41:04.923Z,99903.38
2022-07-29T18:43:31.653Z,99910.38
2022-07-29T18:46:00.462Z,99923.19
2022-07-29T18:48:28.983Z,99903.03
2022-07-29T18:50:57.151Z,99929.16
2022-07-29T18:53:23.834Z,99921.69
2022-07-29T18:55:50.493Z,99925.78
2022-07-29T18:58:17.130Z,99933.97
2022-07-29T19:00:43.813Z,99922.03
2022-07-29T19:03:10.622Z,99928.84
2022-07-29T19:05:47.296Z,99934.72
2022-07-29T19:08:15.401Z,99936.28
2022-07-29T19:10:46.377Z,99928.28
2022-07-29T19:13:13.358Z,99937.38
2022-07-29T19:15:40.435Z,99916.66
2022-07-29T19:18:10.200Z,99939.88
2022-07-29T19:20:36.930Z,99914.88
2022-07-29T19:23:04.765Z,99922.94
2022-07-29T19:25:35.668Z,99911.28
2022-07-29T19:28:06.474Z,99936.75
2022-07-29T19:30:34.378Z,99924.59
2022-07-29T19:33:06.091Z,99939.00
2022-07-29T19:35:34.004Z,99927.03
2022-07-29T19:38:02.281Z,99907.09
2022-07-29T19:40:29.744Z,99942.78
2022-07-29T19:42:57.982Z,99947.53
2022-07-29T19:45:25.795Z,99920.47
2022-07-29T19:47:55.552Z,99950.94
2022-07-29T19:50:24.613Z,99951.31
2022-07-29T19:52:51.594Z,99963.94
2022-07-29T19:55:18.854Z,99936.44
2022-07-29T19:57:46.270Z,99960.44
2022-07-29T20:00:15.067Z,99972.19
2022-07-29T20:02:41.813Z,99975.94
2022-07-29T20:05:09.649Z,99974.13
2022-07-29T20:07:38.138Z,99961.03
2022-07-29T20:10:07.206Z,99986.44
2022-07-29T20:12:33.774Z,99983.00
2022-07-29T20:15:00.532Z,99992.97
2022-07-29T20:17:28.656Z,99983.88
2022-07-29T20:19:55.399Z,99989.81
2022-07-29T20:22:27.665Z,99999.75
2022-07-29T20:24:54.401Z,99977.25
2022-07-29T20:27:21.059Z,99975.13
2022-07-29T20:29:47.719Z,99987.81
2022-07-29T20:32:14.443Z,99980.28
2022-07-29T20:34:42.647Z,99981.19
2022-07-29T20:37:25.185Z,99959.16
2022-07-29T20:39:52.333Z,99957.19
2022-07-29T20:42:19.154Z,99958.69
2022-07-29T20:44:46.261Z,99953.16
2022-07-29T20:47:12.965Z,99966.69
2022-07-29T20:49:39.614Z,99963.63
2022-07-29T20:52:07.257Z,99966.25
2022-07-29T20:54:35.740Z,99930.31
2022-07-29T20:57:05.653Z,99966.78
2022-07-29T20:59:32.367Z,99958.28
2022-07-29T21:01:59.646Z,99955.91
2022-07-29T21:04:30.576Z,99944.66
2022-07-29T21:06:58.101Z,99953.09
2022-07-29T21:09:24.967Z,99971.91
2022-07-29T21:11:52.956Z,99957.53
2022-07-29T21:14:22.243Z,99968.59
2022-07-29T21:16:48.860Z,99970.66
2022-07-29T21:19:15.521Z,99958.47
2022-07-29T21:21:42.182Z,99957.91
2022-07-29T21:24:08.933Z,99956.09
2022-07-29T21:26:39.013Z,99955.34
2022-07-29T21:29:07.411Z,99951.94
2022-07-29T21:31:35.034Z,99938.31
2022-07-29T21:34:01.973Z,99964.19
2022-07-29T21:36:47.680Z,99933.84
2022-07-29T21:39:16.014Z,99955.28
2022-07-29T21:41:43.691Z,99960.16
2022-07-29T21:44:12.313Z,99960.28
2022-07-29T21:46:39.101Z,99936.13
2022-07-29T21:49:06.590Z,99941.75
2022-07-29T21:51:33.355Z,99925.81
2022-07-29T21:54:00.106Z,99958.25
2022-07-29T21:56:27.705Z,99964.75
2022-07-29T21:58:54.666Z,99954.19
2022-07-29T22:01:23.641Z,99953.34
2022-07-29T22:03:50.468Z,99960.94
2022-07-29T22:06:18.197Z,99954.09
2022-07-29T22:08:45.214Z,99945.25
2022-07-29T22:11:13.305Z,99942.78
2022-07-29T22:13:40.201Z,99955.38
2022-07-29T22:16:07.468Z,99942.66
2022-07-29T22:18:35.593Z,99936.22
2022-07-29T22:21:02.360Z,99939.34
2022-07-29T22:23:29.167Z,99919.72
2022-07-29T22:25:55.830Z,99909.69
2022-07-29T22:28:23.078Z,99912.84
2022-07-29T22:30:49.808Z,99899.13
2022-07-29T22:33:17.610Z,99916.59
2022-07-29T22:35:48.937Z,99918.00
2022-07-29T22:38:17.148Z,99908.31
2022-07-29T22:40:43.882Z,99906.47
2022-07-29T22:43:10.660Z,99898.63
2022-07-29T22:45:37.394Z,99893.84
2022-07-29T22:48:06.310Z,99889.91
2022-07-29T22:50:33.708Z,99886.47
2022-07-29T22:53:01.807Z,99884.84
2022-07-29T22:55:28.488Z,99875.78
2022-07-29T22:57:55.162Z,99870.50
2022-07-29T23:00:21.816Z,99878.72
2022-07-29T23:02:48.437Z,99881.38
2022-07-29T23:05:15.358Z,99867.81
2022-07-29T23:07:42.322Z,99874.03
2022-07-29T23:10:10.704Z,99881.66
2022-07-29T23:12:37.565Z,99875.34
2022-07-29T23:15:04.944Z,99884.63
2022-07-29T23:17:31.608Z,99878.19
2022-07-29T23:20:03.913Z,99882.78
2022-07-29T23:22:30.613Z,99883.41
2022-07-29T23:24:57.256Z,99894.19
2022-07-29T23:27:25.314Z,99883.47
2022-07-29T23:29:52.105Z,99894.44
2022-07-29T23:32:18.820Z,99888.59
2022-07-29T23:34:45.519Z,99890.16
2022-07-29T23:37:12.169Z,99892.53
2022-07-29T23:39:38.817Z,99882.97
2022-07-29T23:42:05.552Z,99891.25
2022-07-29T23:44:33.659Z,99873.38
2022-07-29T23:47:00.502Z,99889.00
2022-07-29T23:49:27.329Z,99880.94
2022-07-29T23:51:54.218Z,99880.28
2022-07-29T23:54:20.880Z,99885.41
2022-07-29T23:56:47.496Z,99881.56
2022-07-29T23:59:14.164Z,99878.84
